Terminal Aerodrome Forecast
Issued by NWS Greer, SC

Home | Current Version | Previous Version | Text Only | Print | Product List | Glossary On
Versions: 1 2 3 4 5 6 7 8 9 10 11 12 13 14 15 16 17 18 19 20 21 22 23 24 25 26 27 28 29 30 31 32 33
000
FTUS42 KGSP 240520
TAFCLT
TAF
KCLT 240520Z 2406/2506 32004KT P6SM VCSH SCT025 BKN050
      TEMPO 2406/2409 -SHRA BKN025
     FM240900 29006KT P6SM SCT070
     FM241600 30010G18KT P6SM SCT250
     FM242000 29007KT P6SM SKC=

USA.gov is the U.S. government's official web portal to all federal, state and local government web resources and services.